Contship Joy — 9HA4180 — position and weather

sailwx.info

Track history (hours):
 
Tides and Currents Weather Stations Pressure Air Temp Water Temp Dewpoint Dewpoint Depression Visibility Wind Speed Wind Dir Waves Ship Positions

Contship Joy

Last reported at 2017-Sep-19 17:57 UTC. Time now 2017-Sep-22 22:44 UTC.
Position N 40°25' W 009°31'.

Length 140 m; draft 9 m.

Type: Cargo ship. MMSI: 249272000.

Date/timePositionNaut miles runAvg speedWind from/ knotsBaromVisibWave heightAir tempDewpointWater temp
2017-Sep-19 17:57N 40°25' W 009°31'1413.7
2017-Sep-19 16:57N 40°11' W 009°35'813.7
2017-Sep-19 16:20N 40°03' W 009°37'413.7
2017-Sep-19 16:00N 39°59' W 009°38'1613.6
2017-Sep-19 14:50N 39°43' W 009°42'1713.6
2017-Sep-19 13:34N 39°26' W 009°47'213.9
2017-Sep-19 13:26N 39°24' W 009°47'614.1
2017-Sep-19 13:01N 39°18' W 009°48'714.2
2017-Sep-19 12:30N 39°11' W 009°50'714.1
2017-Sep-19 12:01N 39°04' W 009°50'713.9
2017-Sep-19 11:30N 38°58' W 009°50'714.2
2017-Sep-19 11:00N 38°50' W 009°50'714.1
2017-Sep-19 10:30N 38°43' W 009°51'713.7
2017-Sep-19 10:00N 38°37' W 009°50'713.2
2017-Sep-19 09:30N 38°30' W 009°48'713.2
2017-Sep-19 09:00N 38°24' W 009°46'713.6
2017-Sep-19 08:30N 38°17' W 009°44'713.5
2017-Sep-19 08:00N 38°11' W 009°41'713.6
2017-Sep-19 07:31N 38°04' W 009°40'713.7
2017-Sep-19 07:00N 37°57' W 009°38'713.7
2017-Sep-19 06:30N 37°51' W 009°36'713.5
2017-Sep-19 06:00N 37°44' W 009°34'713.7
2017-Sep-19 05:30N 37°37' W 009°32'713.4
2017-Sep-19 04:59N 37°31' W 009°30'714.0
2017-Sep-19 04:30N 37°24' W 009°28'914.1
2017-Sep-19 03:51N 37°15' W 009°25'514.1
2017-Sep-19 03:30N 37°10' W 009°24'714.1
2017-Sep-19 03:00N 37°03' W 009°22'813.8
2017-Sep-19 02:26N 36°56' W 009°20'713.0
2017-Sep-19 01:55N 36°50' W 009°16'1414.0
2017-Sep-19 00:58N 36°43' W 009°02'614.1
2017-Sep-19 00:30N 36°41' W 008°54'713.7
2017-Sep-19 00:00N 36°39' W 008°46'713.7
2017-Sep-18 23:30N 36°37' W 008°38'714.0
2017-Sep-18 23:00N 36°35' W 008°29'714.2
2017-Sep-18 22:30N 36°32' W 008°21'714.3
2017-Sep-18 22:00N 36°30' W 008°12'714.3
2017-Sep-18 21:30N 36°28' W 008°04'814.2
2017-Sep-18 20:56N 36°25' W 007°55'614.1
2017-Sep-18 20:30N 36°23' W 007°47'714.0
2017-Sep-18 19:59N 36°21' W 007°39'4114.0
2017-Sep-18 17:06N 36°08' W 006°51'6013.2
2017-Sep-18 12:31N 35°58' W 005°38'013.5
2017-Sep-18 12:30N 35°58' W 005°37'612.9
2017-Sep-18 12:00N 35°60' W 005°30'611.4
2017-Sep-18 11:29N 36°03' W 005°24'5 1.0
2017-Sep-18 05:53N 36°08' W 005°26'0 0.0
2017-Sep-18 05:15N 36°08' W 005°26'0 0.0
2017-Sep-18 04:55N 36°08' W 005°26'0 0.0
2017-Sep-18 04:08N 36°08' W 005°26'0 0.0
2017-Sep-18 03:59N 36°08' W 005°26'0 0.0
2017-Sep-18 02:59N 36°08' W 005°26'0 0.0
2017-Sep-18 01:46N 36°08' W 005°26'0 0.0
2017-Sep-18 00:42N 36°08' W 005°26'0 0.0
2017-Sep-18 00:23N 36°08' W 005°26'0 0.0
2017-Sep-18 00:01N 36°08' W 005°26'0 0.0
2017-Sep-17 23:30N 36°08' W 005°26'0 0.0
2017-Sep-17 22:56N 36°08' W 005°26'0 0.0
2017-Sep-17 22:30N 36°08' W 005°26'0 0.0
2017-Sep-17 21:59N 36°08' W 005°26'0 0.0
2017-Sep-17 21:07N 36°08' W 005°26'0 0.1
2017-Sep-17 20:57N 36°08' W 005°26'0 0.0
2017-Sep-17 20:11N 36°08' W 005°26'0 0.0
2017-Sep-17 19:18N 36°08' W 005°26'0 0.0
2017-Sep-17 18:59N 36°08' W 005°26'0 0.0
2017-Sep-17 18:29N 36°08' W 005°26'0 0.0
2017-Sep-17 18:01N 36°08' W 005°26'0 0.0
2017-Sep-17 17:30N 36°08' W 005°26'0 0.1
2017-Sep-17 17:00N 36°08' W 005°26'2 3.3
2017-Sep-17 16:31N 36°09' W 005°24'2 4.6
2017-Sep-17 16:01N 36°06' W 005°24'4 8.7
2017-Sep-17 15:31N 36°02' W 005°24'611.7
2017-Sep-17 15:00N 35°58' W 005°29'612.8
2017-Sep-17 14:30N 35°56' W 005°36'912.5
2017-Sep-17 13:48N 35°54' W 005°47'10113.3
2017-Sep-17 06:10N 36°15' W 007°50'213.9
2017-Sep-17 06:01N 36°16' W 007°52'714.1
2017-Sep-17 05:31N 36°17' W 008°01'714.0
2017-Sep-17 05:01N 36°19' W 008°09'714.1
2017-Sep-17 04:31N 36°21' W 008°18'713.9
2017-Sep-17 04:01N 36°23' W 008°26'713.6
2017-Sep-17 03:31N 36°24' W 008°34'1514.0
2017-Sep-17 02:28N 36°28' W 008°52'613.8
2017-Sep-17 02:00N 36°30' W 008°59'913.8
2017-Sep-17 01:23N 36°32' W 009°10'813.8
2017-Sep-17 00:47N 36°36' W 009°19'414.6
2017-Sep-17 00:31N 36°39' W 009°22'714.3
2017-Sep-17 00:00N 36°44' W 009°28'714.3
2017-Sep-16 23:30N 36°50' W 009°33'713.9
2017-Sep-16 22:59N 36°57' W 009°35'2014.1
2017-Sep-16 21:33N 37°17' W 009°41'1014.7
2017-Sep-16 20:50N 37°27' W 009°44'515.1
2017-Sep-16 20:28N 37°32' W 009°46'714.3
2017-Sep-16 20:01N 37°39' W 009°47'713.8
2017-Sep-16 19:30N 37°46' W 009°49'713.9
2017-Sep-16 19:00N 37°52' W 009°52'713.8
2017-Sep-16 18:31N 37°59' W 009°53'713.9
2017-Sep-16 18:00N 38°06' W 009°55'714.3
2017-Sep-16 17:30N 38°13' W 009°57'714.4
2017-Sep-16 17:00N 38°20' W 009°59'714.6
2017-Sep-16 16:30N 38°27' W 010°01'714.5
2017-Sep-16 16:00N 38°34' W 010°03'714.6
2017-Sep-16 15:30N 38°41' W 010°05'714.6
2017-Sep-16 15:00N 38°49' W 010°06'714.7
2017-Sep-16 14:30N 38°56' W 010°04'714.6
2017-Sep-16 14:00N 39°03' W 010°02'714.8
2017-Sep-16 13:30N 39°10' W 010°01'714.5
2017-Sep-16 13:00N 39°17' W 009°59'714.1
2017-Sep-16 12:30N 39°24' W 009°57'  
2017-Sep-13 14:42N 40°18' W 009°33'510.6
2017-Sep-13 14:12N 40°13' W 009°35'2110.7
2017-Sep-13 12:16N 39°53' W 009°40'2610.4
2017-Sep-13 09:46N 39°27' W 009°46'310.6
2017-Sep-13 09:30N 39°24' W 009°46'510.6
2017-Sep-13 09:00N 39°19' W 009°48'510.8
2017-Sep-13 08:30N 39°14' W 009°49'611.2
2017-Sep-13 08:00N 39°09' W 009°50'510.9
2017-Sep-13 07:30N 39°03' W 009°50'611.3
2017-Sep-13 07:00N 38°58' W 009°51'611.5
2017-Sep-13 06:30N 38°52' W 009°51'611.5
2017-Sep-13 06:00N 38°46' W 009°51'611.1
2017-Sep-13 05:30N 38°40' W 009°50'510.6
2017-Sep-13 05:00N 38°35' W 009°49'510.4
2017-Sep-13 04:30N 38°30' W 009°47'510.4
2017-Sep-13 04:00N 38°25' W 009°45'510.7
2017-Sep-13 03:30N 38°20' W 009°43'510.7
2017-Sep-13 03:00N 38°15' W 009°41'510.2
2017-Sep-13 02:30N 38°10' W 009°40'510.3
2017-Sep-13 02:00N 38°05' W 009°39'510.6
2017-Sep-13 01:30N 37°60' W 009°38'510.4
2017-Sep-13 01:00N 37°55' W 009°37'510.4
2017-Sep-13 00:30N 37°50' W 009°35'510.2
2017-Sep-13 00:00N 37°45' W 009°33'510.3
2017-Sep-12 23:30N 37°40' W 009°32'510.1
2017-Sep-12 23:00N 37°35' W 009°30'510.0
2017-Sep-12 22:30N 37°30' W 009°30'510.5
2017-Sep-12 22:00N 37°25' W 009°29'611.8
2017-Sep-12 21:30N 37°19' W 009°27'612.3
2017-Sep-12 21:00N 37°13' W 009°25'612.2
2017-Sep-12 20:30N 37°07' W 009°23'612.0
2017-Sep-12 20:00N 37°01' W 009°21'612.0
2017-Sep-12 19:30N 36°55' W 009°20'611.6
2017-Sep-12 19:01N 36°50' W 009°16'612.7
2017-Sep-12 18:31N 36°46' W 009°10'612.7
2017-Sep-12 18:00N 36°43' W 009°03'612.8
2017-Sep-12 17:30N 36°41' W 008°56'612.8
2017-Sep-12 17:00N 36°40' W 008°48'612.9
2017-Sep-12 16:30N 36°38' W 008°40'713.2
2017-Sep-12 16:00N 36°36' W 008°32'713.3
2017-Sep-12 15:30N 36°34' W 008°25'713.6
2017-Sep-12 15:00N 36°32' W 008°16'713.9
2017-Sep-12 14:31N 36°30' W 008°08'714.4
2017-Sep-12 14:00N 36°28' W 007°60'714.4
2017-Sep-12 13:30N 36°26' W 007°51'714.3
2017-Sep-12 13:00N 36°24' W 007°42'10313.7
2017-Sep-12 05:30N 35°58' W 005°39'713.4
2017-Sep-12 05:00N 35°59' W 005°31'612.2
2017-Sep-12 04:30N 36°02' W 005°24'611.9
2017-Sep-12 04:01N 36°08' W 005°25'1 2.4
2017-Sep-12 03:28N 36°08' W 005°26'0 0.0
2017-Sep-12 02:58N 36°08' W 005°26'0 0.0
2017-Sep-12 02:28N 36°08' W 005°26'0 0.0
2017-Sep-12 01:58N 36°08' W 005°26'0 0.0
2017-Sep-12 01:28N 36°08' W 005°26'0 0.0
2017-Sep-12 00:58N 36°08' W 005°26'0 0.0
2017-Sep-12 00:28N 36°08' W 005°26'0 0.0
2017-Sep-11 23:58N 36°08' W 005°26'0 0.0
2017-Sep-11 23:28N 36°08' W 005°26'0 0.0
2017-Sep-11 22:58N 36°08' W 005°26'0 0.0
2017-Sep-11 22:28N 36°08' W 005°26'0 0.0
2017-Sep-11 21:58N 36°08' W 005°26'0 0.1
2017-Sep-11 21:28N 36°08' W 005°26'0 0.1
2017-Sep-11 20:58N 36°08' W 005°26'0 0.0
2017-Sep-11 20:28N 36°08' W 005°26'0 0.0
2017-Sep-11 19:58N 36°08' W 005°26'0 0.0
2017-Sep-11 19:28N 36°08' W 005°26'0 0.0
2017-Sep-11 18:58N 36°08' W 005°26'0 0.0
2017-Sep-11 18:28N 36°08' W 005°26'0 0.1
2017-Sep-11 17:58N 36°08' W 005°26'0 0.1
2017-Sep-11 17:28N 36°08' W 005°26'0 0.0
2017-Sep-11 16:43N 36°08' W 005°26'0 0.0
2017-Sep-11 16:28N 36°08' W 005°26'0 0.0
2017-Sep-11 15:58N 36°08' W 005°26'0 0.0
2017-Sep-11 15:07N 36°08' W 005°26'0 0.0
2017-Sep-11 14:58N 36°08' W 005°26'0 0.0
2017-Sep-11 14:28N 36°08' W 005°26'0 0.0
2017-Sep-11 13:58N 36°08' W 005°26'0 0.0
2017-Sep-11 13:25N 36°08' W 005°26'0 0.0
2017-Sep-11 13:00N 36°08' W 005°26'0 0.0
2017-Sep-11 12:26N 36°08' W 005°26'0 0.0
2017-Sep-11 12:00N 36°08' W 005°26'0 0.0
2017-Sep-11 11:30N 36°08' W 005°26'0 0.0
2017-Sep-11 09:59N 36°08' W 005°26'0 0.0
2017-Sep-11 09:28N 36°08' W 005°26'0 0.0
2017-Sep-11 05:56N 36°08' W 005°26'1 1.3
2017-Sep-11 05:03N 36°09' W 005°25'1 5.6
2017-Sep-11 04:50N 36°08' W 005°24'1 3.1
2017-Sep-11 04:30N 36°07' W 005°24'0 1.0
2017-Sep-11 04:00N 36°07' W 005°24'1 3.0
2017-Sep-11 03:30N 36°06' W 005°24'4 7.2
2017-Sep-11 03:00N 36°02' W 005°23'4 8.4
2017-Sep-11 02:30N 35°59' W 005°26'510.4
2017-Sep-11 02:00N 35°57' W 005°32'610.0
2017-Sep-11 01:22N 35°56' W 005°40'3 8.9
2017-Sep-11 01:00N 35°55' W 005°44'5 8.9
2017-Sep-11 00:28N 35°55' W 005°50'5 9.3
2017-Sep-10 23:59N 35°55' W 005°55'8710.6
2017-Sep-10 15:42N 36°13' W 007°41'310.8
2017-Sep-10 15:23N 36°14' W 007°45'711.0
2017-Sep-10 14:45N 36°15' W 007°53'811.1
2017-Sep-10 14:00N 36°18' W 008°03'611.2
2017-Sep-10 13:28N 36°19' W 008°11'511.1
2017-Sep-10 13:00N 36°20' W 008°17'1011.3
2017-Sep-10 12:05N 36°23' W 008°29'211.2
2017-Sep-10 11:53N 36°24' W 008°32'2111.4
2017-Sep-10 10:01N 36°29' W 008°58'111.4
2017-Sep-10 09:57N 36°29' W 008°59'1311.5
2017-Sep-10 08:47N 36°33' W 009°14'611.9
2017-Sep-10 08:18N 36°36' W 009°20'411.9
2017-Sep-10 07:56N 36°40' W 009°24'511.6
2017-Sep-10 07:30N 36°44' W 009°28'611.4
2017-Sep-10 07:00N 36°48' W 009°32'611.5
2017-Sep-10 06:30N 36°54' W 009°34'3712.5
2017-Sep-10 03:33N 37°30' W 009°45'112.7
2017-Sep-10 03:27N 37°31' W 009°45'612.6
2017-Sep-10 03:00N 37°36' W 009°47'612.3
2017-Sep-10 02:30N 37°42' W 009°48'612.2
2017-Sep-10 02:00N 37°48' W 009°50'712.1
2017-Sep-10 01:26N 37°55' W 009°52'512.1
2017-Sep-10 01:00N 38°00' W 009°54'612.2
2017-Sep-10 00:30N 38°06' W 009°55'611.9
2017-Sep-09 23:59N 38°12' W 009°57'612.1
2017-Sep-09 23:30N 38°18' W 009°58'612.1
2017-Sep-09 23:00N 38°24' W 010°00'612.4
2017-Sep-09 22:30N 38°30' W 010°02'612.4
2017-Sep-09 22:00N 38°36' W 010°04'612.5
2017-Sep-09 21:30N 38°42' W 010°06'612.7
2017-Sep-09 21:00N 38°48' W 010°06'612.9
2017-Sep-09 20:30N 38°55' W 010°06'713.3
2017-Sep-09 20:01N 39°01' W 010°05'612.8
2017-Sep-09 19:30N 39°08' W 010°04'612.8
2017-Sep-09 19:00N 39°14' W 010°02'612.5
2017-Sep-09 18:30N 39°20' W 009°60'  
Track history (hours):
 
Tides and Currents Weather Stations Pressure Air Temp Water Temp Dewpoint Dewpoint Depression Visibility Wind Speed Wind Dir Waves Ship Positions

Contship Joy

Last reported at 2017-Sep-19 17:57 UTC. Time now 2017-Sep-22 22:44 UTC.
Position N 40°25' W 009°31'.

Length 140 m; draft 9 m.

Type: Cargo ship. MMSI: 249272000.

Date/timePositionNaut miles runAvg speedWind from/ knotsBaromVisibWave heightAir tempDewpointWater temp
2017-Sep-19 17:57N 40°25' W 009°31'1413.7
2017-Sep-19 16:57N 40°11' W 009°35'813.7
2017-Sep-19 16:20N 40°03' W 009°37'413.7
2017-Sep-19 16:00N 39°59' W 009°38'1613.6
2017-Sep-19 14:50N 39°43' W 009°42'1713.6
2017-Sep-19 13:34N 39°26' W 009°47'213.9
2017-Sep-19 13:26N 39°24' W 009°47'614.1
2017-Sep-19 13:01N 39°18' W 009°48'714.2
2017-Sep-19 12:30N 39°11' W 009°50'714.1
2017-Sep-19 12:01N 39°04' W 009°50'713.9
2017-Sep-19 11:30N 38°58' W 009°50'714.2
2017-Sep-19 11:00N 38°50' W 009°50'714.1
2017-Sep-19 10:30N 38°43' W 009°51'713.7
2017-Sep-19 10:00N 38°37' W 009°50'713.2
2017-Sep-19 09:30N 38°30' W 009°48'713.2
2017-Sep-19 09:00N 38°24' W 009°46'713.6
2017-Sep-19 08:30N 38°17' W 009°44'713.5
2017-Sep-19 08:00N 38°11' W 009°41'713.6
2017-Sep-19 07:31N 38°04' W 009°40'713.7
2017-Sep-19 07:00N 37°57' W 009°38'713.7
2017-Sep-19 06:30N 37°51' W 009°36'713.5
2017-Sep-19 06:00N 37°44' W 009°34'713.7
2017-Sep-19 05:30N 37°37' W 009°32'713.4
2017-Sep-19 04:59N 37°31' W 009°30'714.0
2017-Sep-19 04:30N 37°24' W 009°28'914.1
2017-Sep-19 03:51N 37°15' W 009°25'514.1
2017-Sep-19 03:30N 37°10' W 009°24'714.1
2017-Sep-19 03:00N 37°03' W 009°22'813.8
2017-Sep-19 02:26N 36°56' W 009°20'713.0
2017-Sep-19 01:55N 36°50' W 009°16'1414.0
2017-Sep-19 00:58N 36°43' W 009°02'614.1
2017-Sep-19 00:30N 36°41' W 008°54'713.7
2017-Sep-19 00:00N 36°39' W 008°46'713.7
2017-Sep-18 23:30N 36°37' W 008°38'714.0
2017-Sep-18 23:00N 36°35' W 008°29'714.2
2017-Sep-18 22:30N 36°32' W 008°21'714.3
2017-Sep-18 22:00N 36°30' W 008°12'714.3
2017-Sep-18 21:30N 36°28' W 008°04'814.2
2017-Sep-18 20:56N 36°25' W 007°55'614.1
2017-Sep-18 20:30N 36°23' W 007°47'714.0
2017-Sep-18 19:59N 36°21' W 007°39'4114.0
2017-Sep-18 17:06N 36°08' W 006°51'6013.2
2017-Sep-18 12:31N 35°58' W 005°38'013.5
2017-Sep-18 12:30N 35°58' W 005°37'612.9
2017-Sep-18 12:00N 35°60' W 005°30'611.4
2017-Sep-18 11:29N 36°03' W 005°24'5 1.0
2017-Sep-18 05:53N 36°08' W 005°26'0 0.0
2017-Sep-18 05:15N 36°08' W 005°26'0 0.0
2017-Sep-18 04:55N 36°08' W 005°26'0 0.0
2017-Sep-18 04:08N 36°08' W 005°26'0 0.0
2017-Sep-18 03:59N 36°08' W 005°26'0 0.0
2017-Sep-18 02:59N 36°08' W 005°26'0 0.0
2017-Sep-18 01:46N 36°08' W 005°26'0 0.0
2017-Sep-18 00:42N 36°08' W 005°26'0 0.0
2017-Sep-18 00:23N 36°08' W 005°26'0 0.0
2017-Sep-18 00:01N 36°08' W 005°26'0 0.0
2017-Sep-17 23:30N 36°08' W 005°26'0 0.0
2017-Sep-17 22:56N 36°08' W 005°26'0 0.0
2017-Sep-17 22:30N 36°08' W 005°26'0 0.0
2017-Sep-17 21:59N 36°08' W 005°26'0 0.0
2017-Sep-17 21:07N 36°08' W 005°26'0 0.1
2017-Sep-17 20:57N 36°08' W 005°26'0 0.0
2017-Sep-17 20:11N 36°08' W 005°26'0 0.0
2017-Sep-17 19:18N 36°08' W 005°26'0 0.0
2017-Sep-17 18:59N 36°08' W 005°26'0 0.0
2017-Sep-17 18:29N 36°08' W 005°26'0 0.0
2017-Sep-17 18:01N 36°08' W 005°26'0 0.0
2017-Sep-17 17:30N 36°08' W 005°26'0 0.1
2017-Sep-17 17:00N 36°08' W 005°26'2 3.3
2017-Sep-17 16:31N 36°09' W 005°24'2 4.6
2017-Sep-17 16:01N 36°06' W 005°24'4 8.7
2017-Sep-17 15:31N 36°02' W 005°24'611.7
2017-Sep-17 15:00N 35°58' W 005°29'612.8
2017-Sep-17 14:30N 35°56' W 005°36'912.5
2017-Sep-17 13:48N 35°54' W 005°47'10113.3
2017-Sep-17 06:10N 36°15' W 007°50'213.9
2017-Sep-17 06:01N 36°16' W 007°52'714.1
2017-Sep-17 05:31N 36°17' W 008°01'714.0
2017-Sep-17 05:01N 36°19' W 008°09'714.1
2017-Sep-17 04:31N 36°21' W 008°18'713.9
2017-Sep-17 04:01N 36°23' W 008°26'713.6
2017-Sep-17 03:31N 36°24' W 008°34'1514.0
2017-Sep-17 02:28N 36°28' W 008°52'613.8
2017-Sep-17 02:00N 36°30' W 008°59'913.8
2017-Sep-17 01:23N 36°32' W 009°10'813.8
2017-Sep-17 00:47N 36°36' W 009°19'414.6
2017-Sep-17 00:31N 36°39' W 009°22'714.3
2017-Sep-17 00:00N 36°44' W 009°28'714.3
2017-Sep-16 23:30N 36°50' W 009°33'713.9
2017-Sep-16 22:59N 36°57' W 009°35'2014.1
2017-Sep-16 21:33N 37°17' W 009°41'1014.7
2017-Sep-16 20:50N 37°27' W 009°44'515.1
2017-Sep-16 20:28N 37°32' W 009°46'714.3
2017-Sep-16 20:01N 37°39' W 009°47'713.8
2017-Sep-16 19:30N 37°46' W 009°49'713.9
2017-Sep-16 19:00N 37°52' W 009°52'713.8
2017-Sep-16 18:31N 37°59' W 009°53'713.9
2017-Sep-16 18:00N 38°06' W 009°55'714.3
2017-Sep-16 17:30N 38°13' W 009°57'714.4
2017-Sep-16 17:00N 38°20' W 009°59'714.6
2017-Sep-16 16:30N 38°27' W 010°01'714.5
2017-Sep-16 16:00N 38°34' W 010°03'714.6
2017-Sep-16 15:30N 38°41' W 010°05'714.6
2017-Sep-16 15:00N 38°49' W 010°06'714.7
2017-Sep-16 14:30N 38°56' W 010°04'714.6
2017-Sep-16 14:00N 39°03' W 010°02'714.8
2017-Sep-16 13:30N 39°10' W 010°01'714.5
2017-Sep-16 13:00N 39°17' W 009°59'714.1
2017-Sep-16 12:30N 39°24' W 009°57'  
2017-Sep-13 14:42N 40°18' W 009°33'510.6
2017-Sep-13 14:12N 40°13' W 009°35'2110.7
2017-Sep-13 12:16N 39°53' W 009°40'2610.4
2017-Sep-13 09:46N 39°27' W 009°46'310.6
2017-Sep-13 09:30N 39°24' W 009°46'510.6
2017-Sep-13 09:00N 39°19' W 009°48'510.8
2017-Sep-13 08:30N 39°14' W 009°49'611.2
2017-Sep-13 08:00N 39°09' W 009°50'510.9
2017-Sep-13 07:30N 39°03' W 009°50'611.3
2017-Sep-13 07:00N 38°58' W 009°51'611.5
2017-Sep-13 06:30N 38°52' W 009°51'611.5
2017-Sep-13 06:00N 38°46' W 009°51'611.1
2017-Sep-13 05:30N 38°40' W 009°50'510.6
2017-Sep-13 05:00N 38°35' W 009°49'510.4
2017-Sep-13 04:30N 38°30' W 009°47'510.4
2017-Sep-13 04:00N 38°25' W 009°45'510.7
2017-Sep-13 03:30N 38°20' W 009°43'510.7
2017-Sep-13 03:00N 38°15' W 009°41'510.2
2017-Sep-13 02:30N 38°10' W 009°40'510.3
2017-Sep-13 02:00N 38°05' W 009°39'510.6
2017-Sep-13 01:30N 37°60' W 009°38'510.4
2017-Sep-13 01:00N 37°55' W 009°37'510.4
2017-Sep-13 00:30N 37°50' W 009°35'510.2
2017-Sep-13 00:00N 37°45' W 009°33'510.3
2017-Sep-12 23:30N 37°40' W 009°32'510.1
2017-Sep-12 23:00N 37°35' W 009°30'510.0
2017-Sep-12 22:30N 37°30' W 009°30'510.5
2017-Sep-12 22:00N 37°25' W 009°29'611.8
2017-Sep-12 21:30N 37°19' W 009°27'612.3
2017-Sep-12 21:00N 37°13' W 009°25'612.2
2017-Sep-12 20:30N 37°07' W 009°23'612.0
2017-Sep-12 20:00N 37°01' W 009°21'612.0
2017-Sep-12 19:30N 36°55' W 009°20'611.6
2017-Sep-12 19:01N 36°50' W 009°16'612.7
2017-Sep-12 18:31N 36°46' W 009°10'612.7
2017-Sep-12 18:00N 36°43' W 009°03'612.8
2017-Sep-12 17:30N 36°41' W 008°56'612.8
2017-Sep-12 17:00N 36°40' W 008°48'612.9
2017-Sep-12 16:30N 36°38' W 008°40'713.2
2017-Sep-12 16:00N 36°36' W 008°32'713.3
2017-Sep-12 15:30N 36°34' W 008°25'713.6
2017-Sep-12 15:00N 36°32' W 008°16'713.9
2017-Sep-12 14:31N 36°30' W 008°08'714.4
2017-Sep-12 14:00N 36°28' W 007°60'714.4
2017-Sep-12 13:30N 36°26' W 007°51'714.3
2017-Sep-12 13:00N 36°24' W 007°42'10313.7
2017-Sep-12 05:30N 35°58' W 005°39'713.4
2017-Sep-12 05:00N 35°59' W 005°31'612.2
2017-Sep-12 04:30N 36°02' W 005°24'611.9
2017-Sep-12 04:01N 36°08' W 005°25'1 2.4
2017-Sep-12 03:28N 36°08' W 005°26'0 0.0
2017-Sep-12 02:58N 36°08' W 005°26'0 0.0
2017-Sep-12 02:28N 36°08' W 005°26'0 0.0
2017-Sep-12 01:58N 36°08' W 005°26'0 0.0
2017-Sep-12 01:28N 36°08' W 005°26'0 0.0
2017-Sep-12 00:58N 36°08' W 005°26'0 0.0
2017-Sep-12 00:28N 36°08' W 005°26'0 0.0
2017-Sep-11 23:58N 36°08' W 005°26'0 0.0
2017-Sep-11 23:28N 36°08' W 005°26'0 0.0
2017-Sep-11 22:58N 36°08' W 005°26'0 0.0
2017-Sep-11 22:28N 36°08' W 005°26'0 0.0
2017-Sep-11 21:58N 36°08' W 005°26'0 0.1
2017-Sep-11 21:28N 36°08' W 005°26'0 0.1
2017-Sep-11 20:58N 36°08' W 005°26'0 0.0
2017-Sep-11 20:28N 36°08' W 005°26'0 0.0
2017-Sep-11 19:58N 36°08' W 005°26'0 0.0
2017-Sep-11 19:28N 36°08' W 005°26'0 0.0
2017-Sep-11 18:58N 36°08' W 005°26'0 0.0
2017-Sep-11 18:28N 36°08' W 005°26'0 0.1
2017-Sep-11 17:58N 36°08' W 005°26'0 0.1
2017-Sep-11 17:28N 36°08' W 005°26'0 0.0
2017-Sep-11 16:43N 36°08' W 005°26'0 0.0
2017-Sep-11 16:28N 36°08' W 005°26'0 0.0
2017-Sep-11 15:58N 36°08' W 005°26'0 0.0
2017-Sep-11 15:07N 36°08' W 005°26'0 0.0
2017-Sep-11 14:58N 36°08' W 005°26'0 0.0
2017-Sep-11 14:28N 36°08' W 005°26'0 0.0
2017-Sep-11 13:58N 36°08' W 005°26'0 0.0
2017-Sep-11 13:25N 36°08' W 005°26'0 0.0
2017-Sep-11 13:00N 36°08' W 005°26'0 0.0
2017-Sep-11 12:26N 36°08' W 005°26'0 0.0
2017-Sep-11 12:00N 36°08' W 005°26'0 0.0
2017-Sep-11 11:30N 36°08' W 005°26'0 0.0
2017-Sep-11 09:59N 36°08' W 005°26'0 0.0
2017-Sep-11 09:28N 36°08' W 005°26'0 0.0
2017-Sep-11 05:56N 36°08' W 005°26'1 1.3
2017-Sep-11 05:03N 36°09' W 005°25'1 5.6
2017-Sep-11 04:50N 36°08' W 005°24'1 3.1
2017-Sep-11 04:30N 36°07' W 005°24'0 1.0
2017-Sep-11 04:00N 36°07' W 005°24'1 3.0
2017-Sep-11 03:30N 36°06' W 005°24'4 7.2
2017-Sep-11 03:00N 36°02' W 005°23'4 8.4
2017-Sep-11 02:30N 35°59' W 005°26'510.4
2017-Sep-11 02:00N 35°57' W 005°32'610.0
2017-Sep-11 01:22N 35°56' W 005°40'3 8.9
2017-Sep-11 01:00N 35°55' W 005°44'5 8.9
2017-Sep-11 00:28N 35°55' W 005°50'5 9.3
2017-Sep-10 23:59N 35°55' W 005°55'8710.6
2017-Sep-10 15:42N 36°13' W 007°41'310.8
2017-Sep-10 15:23N 36°14' W 007°45'711.0
2017-Sep-10 14:45N 36°15' W 007°53'811.1
2017-Sep-10 14:00N 36°18' W 008°03'611.2
2017-Sep-10 13:28N 36°19' W 008°11'511.1
2017-Sep-10 13:00N 36°20' W 008°17'1011.3
2017-Sep-10 12:05N 36°23' W 008°29'211.2
2017-Sep-10 11:53N 36°24' W 008°32'2111.4
2017-Sep-10 10:01N 36°29' W 008°58'111.4
2017-Sep-10 09:57N 36°29' W 008°59'1311.5
2017-Sep-10 08:47N 36°33' W 009°14'611.9
2017-Sep-10 08:18N 36°36' W 009°20'411.9
2017-Sep-10 07:56N 36°40' W 009°24'511.6
2017-Sep-10 07:30N 36°44' W 009°28'611.4
2017-Sep-10 07:00N 36°48' W 009°32'611.5
2017-Sep-10 06:30N 36°54' W 009°34'3712.5
2017-Sep-10 03:33N 37°30' W 009°45'112.7
2017-Sep-10 03:27N 37°31' W 009°45'612.6
2017-Sep-10 03:00N 37°36' W 009°47'612.3
2017-Sep-10 02:30N 37°42' W 009°48'612.2
2017-Sep-10 02:00N 37°48' W 009°50'712.1
2017-Sep-10 01:26N 37°55' W 009°52'512.1
2017-Sep-10 01:00N 38°00' W 009°54'612.2
2017-Sep-10 00:30N 38°06' W 009°55'611.9
2017-Sep-09 23:59N 38°12' W 009°57'612.1
2017-Sep-09 23:30N 38°18' W 009°58'612.1
2017-Sep-09 23:00N 38°24' W 010°00'612.4
2017-Sep-09 22:30N 38°30' W 010°02'612.4
2017-Sep-09 22:00N 38°36' W 010°04'612.5
2017-Sep-09 21:30N 38°42' W 010°06'612.7
2017-Sep-09 21:00N 38°48' W 010°06'612.9
2017-Sep-09 20:30N 38°55' W 010°06'713.3
2017-Sep-09 20:01N 39°01' W 010°05'612.8
2017-Sep-09 19:30N 39°08' W 010°04'612.8
2017-Sep-09 19:00N 39°14' W 010°02'612.5
2017-Sep-09 18:30N 39°20' W 009°60'  

Dump ship's entire track history